Centralia, Kansas
Current Conditions -  °F | °C
As of 10:55 PM on Sunday 21 Dec 2014 (Local Time) from KMYZ Reporting Station
Light Rain Light Rain  
Wind Chill: 37°   Ceiling: 500
Heat Index: 43°   Visibility: 5mi
Dew Point: 41°   Wind: 12mph
Humidity: 93%   Direction: 170°S
Pressure: 29.65"   Gusts: 20mph
Location:  39.73°N, 96.13°W
Report Text: KMYZ 220455Z AUTO 17010G17KT 5SM -RA OVC005 06/05 A2965 RMK AO2
Loading
Personal Weather Stations






























Interactive Weather Map New forecast layout! Learn more

10-Day Weather Forecast

Advertisements
Track Severe Weather on mobile